PWSweather.com
Personal Weather Stations
Station Observations
WAIROAHB
Wairoa, Northern Hawkes Bay -NZ 4108

WairoaNorthern Hawkes Bay -NZ 4108

Lat: -39.04516934, Lon: 177.4263989

Elevation: 156

Station Type: WS3083

http://wairoa.net/weather/index.htm

High Low Average
Temperature 82.4°F28.0°C 69.1°F20.6°C 74.6°F23.7°C
Dew Point 69.1°F20.6°C 63.0°F17.2°C 66.4°F19.1°C
Winds 8.3 mph 13.4 kmh Calm Calm 2.0 mph S3.2 kmh S
Wind Gusts 15.9 mph25.6 kmh -- 7.0 mph11.3 kmh
Humidity 92% 59% 76%
Pressure 29.98 in1015.2 mb 29.89 in1012.2 mb -
Precipitation 0.02 in0.5 mm - -
Hour Temp Dew Point Humidity Winds Wind Gusts Pressure Precip Precip Rate Daily Precip Total
12:00 AM 72.5°F22.5°C 67.4°F19.7°C 84% Calm Calm -- 29.98 in1015.2 mb 0.00 in0.0 mm 0.00 in0.0 mm 0.00 in0.0 mm
12:10 AM 72.3°F22.4°C 67.3°F19.6°C 84% 0.7 mph NNE1.1 kmh NNE 3.8 mph6.1 kmh 29.98 in1015.2 mb 0.00 in0.0 mm 0.00 in0.0 mm 0.00 in0.0 mm
12:20 AM 72.3°F22.4°C 66.9°F19.4°C 83% 0.7 mph N1.1 kmh N 4.5 mph7.2 kmh 29.98 in1015.2 mb 0.00 in0.0 mm 0.00 in0.0 mm 0.00 in0.0 mm
12:30 AM 72.1°F22.3°C 67.1°F19.5°C 84% Calm Calm 3.8 mph6.1 kmh 29.98 in1015.2 mb 0.00 in0.0 mm 0.00 in0.0 mm 0.00 in0.0 mm
12:40 AM 72.0°F22.2°C 66.9°F19.4°C 84% Calm Calm 3.1 mph5.0 kmh 29.97 in1014.9 mb 0.00 in0.0 mm 0.00 in0.0 mm 0.00 in0.0 mm
12:50 AM 71.8°F22.1°C 66.7°F19.3°C 84% Calm Calm 3.8 mph6.1 kmh 29.98 in1015.2 mb 0.00 in0.0 mm 0.00 in0.0 mm 0.00 in0.0 mm
01:00 AM 71.6°F22.0°C 66.5°F19.2°C 84% Calm Calm 1.6 mph2.6 kmh 29.97 in1014.9 mb 0.00 in0.0 mm 0.00 in0.0 mm 0.00 in0.0 mm
01:10 AM 71.4°F21.9°C 66.7°F19.3°C 85% Calm Calm 0.7 mph1.1 kmh 29.97 in1014.9 mb 0.00 in0.0 mm 0.00 in0.0 mm 0.00 in0.0 mm
01:20 AM 71.1°F21.7°C 66.7°F19.3°C 86% Calm Calm 0.7 mph1.1 kmh 29.96 in1014.6 mb 0.00 in0.0 mm 0.00 in0.0 mm 0.00 in0.0 mm
01:30 AM 70.9°F21.6°C 66.5°F19.2°C 86% Calm Calm 0.7 mph1.1 kmh 29.96 in1014.6 mb 0.00 in0.0 mm 0.00 in0.0 mm 0.00 in0.0 mm
01:40 AM 70.7°F21.5°C 66.3°F19.1°C 86% Calm Calm 2.2 mph3.5 kmh 29.96 in1014.6 mb 0.00 in0.0 mm 0.00 in0.0 mm 0.00 in0.0 mm
01:50 AM 70.7°F21.5°C 66.3°F19.1°C 86% Calm Calm 2.2 mph3.5 kmh 29.96 in1014.6 mb 0.00 in0.0 mm 0.00 in0.0 mm 0.00 in0.0 mm
02:00 AM 70.7°F21.5°C 66.0°F18.9°C 85% Calm Calm 1.6 mph2.6 kmh 29.96 in1014.6 mb 0.00 in0.0 mm 0.00 in0.0 mm 0.00 in0.0 mm
02:10 AM 70.7°F21.5°C 66.0°F18.9°C 85% Calm Calm 3.1 mph5.0 kmh 29.96 in1014.6 mb 0.00 in0.0 mm 0.00 in0.0 mm 0.00 in0.0 mm
02:20 AM 70.5°F21.4°C 65.8°F18.8°C 85% Calm Calm 3.8 mph6.1 kmh 29.95 in1014.2 mb 0.00 in0.0 mm 0.00 in0.0 mm 0.00 in0.0 mm
02:30 AM 70.3°F21.3°C 65.3°F18.5°C 84% 0.7 mph N1.1 kmh N 3.8 mph6.1 kmh 29.95 in1014.2 mb 0.00 in0.0 mm 0.00 in0.0 mm 0.00 in0.0 mm
02:40 AM 70.3°F21.3°C 65.3°F18.5°C 84% 0.7 mph N1.1 kmh N 4.5 mph7.2 kmh 29.95 in1014.2 mb 0.00 in0.0 mm 0.00 in0.0 mm 0.00 in0.0 mm
02:50 AM 70.2°F21.2°C 65.1°F18.4°C 84% Calm Calm 3.8 mph6.1 kmh 29.96 in1014.6 mb 0.00 in0.0 mm 0.00 in0.0 mm 0.00 in0.0 mm
03:00 AM 70.0°F21.1°C 65.0°F18.3°C 84% Calm Calm 2.2 mph3.5 kmh 29.95 in1014.2 mb 0.00 in0.0 mm 0.00 in0.0 mm 0.00 in0.0 mm
03:10 AM 69.6°F20.9°C 65.3°F18.5°C 86% Calm Calm 3.1 mph5.0 kmh 29.94 in1013.9 mb 0.00 in0.0 mm 0.00 in0.0 mm 0.00 in0.0 mm
03:20 AM 69.3°F20.7°C 64.9°F18.3°C 86% Calm Calm 1.6 mph2.6 kmh 29.95 in1014.2 mb 0.00 in0.0 mm 0.00 in0.0 mm 0.00 in0.0 mm
03:30 AM 69.1°F20.6°C 65.1°F18.4°C 87% Calm Calm 3.1 mph5.0 kmh 29.95 in1014.2 mb 0.00 in0.0 mm 0.00 in0.0 mm 0.00 in0.0 mm
03:40 AM 69.1°F20.6°C 64.7°F18.2°C 86% Calm Calm 3.1 mph5.0 kmh 29.95 in1014.2 mb 0.00 in0.0 mm 0.00 in0.0 mm 0.00 in0.0 mm
03:50 AM 69.3°F20.7°C 64.9°F18.3°C 86% Calm Calm 3.1 mph5.0 kmh 29.96 in1014.6 mb 0.00 in0.0 mm 0.00 in0.0 mm 0.00 in0.0 mm
04:00 AM 69.3°F20.7°C 64.6°F18.1°C 85% Calm Calm 2.2 mph3.5 kmh 29.96 in1014.6 mb 0.00 in0.0 mm 0.00 in0.0 mm 0.00 in0.0 mm
04:10 AM 69.3°F20.7°C 64.6°F18.1°C 85% 0.7 mph N1.1 kmh N 3.1 mph5.0 kmh 29.96 in1014.6 mb 0.00 in0.0 mm 0.00 in0.0 mm 0.00 in0.0 mm
04:20 AM 69.1°F20.6°C 64.1°F17.8°C 84% Calm Calm 3.1 mph5.0 kmh 29.96 in1014.6 mb 0.00 in0.0 mm 0.00 in0.0 mm 0.00 in0.0 mm
04:30 AM 69.3°F20.7°C 64.2°F17.9°C 84% Calm Calm 4.5 mph7.2 kmh 29.96 in1014.6 mb 0.00 in0.0 mm 0.00 in0.0 mm 0.00 in0.0 mm
04:40 AM 69.3°F20.7°C 63.9°F17.7°C 83% Calm Calm 3.1 mph5.0 kmh 29.96 in1014.6 mb 0.00 in0.0 mm 0.00 in0.0 mm 0.00 in0.0 mm
04:50 AM 69.6°F20.9°C 64.3°F17.9°C 83% 0.7 mph N1.1 kmh N 3.8 mph6.1 kmh 29.96 in1014.6 mb 0.00 in0.0 mm 0.00 in0.0 mm 0.00 in0.0 mm
05:00 AM 69.8°F21.0°C 63.7°F17.6°C 81% 0.7 mph NNW1.1 kmh NNW 4.5 mph7.2 kmh 29.97 in1014.9 mb 0.00 in0.0 mm 0.00 in0.0 mm 0.00 in0.0 mm
05:10 AM 70.0°F21.1°C 63.6°F17.6°C 80% 0.7 mph N1.1 kmh N 6.9 mph11.1 kmh 29.96 in1014.6 mb 0.00 in0.0 mm 0.00 in0.0 mm 0.00 in0.0 mm
05:20 AM 70.0°F21.1°C 63.6°F17.6°C 80% 3.8 mph NW6.1 kmh NW 6.0 mph9.7 kmh 29.96 in1014.6 mb 0.00 in0.0 mm 0.00 in0.0 mm 0.00 in0.0 mm
05:30 AM 70.0°F21.1°C 63.6°F17.6°C 80% 0.7 mph NNW1.1 kmh NNW 6.0 mph9.7 kmh 29.96 in1014.6 mb 0.00 in0.0 mm 0.00 in0.0 mm 0.00 in0.0 mm
05:40 AM 69.8°F21.0°C 63.7°F17.6°C 81% 0.7 mph NNW1.1 kmh NNW 6.9 mph11.1 kmh 29.96 in1014.6 mb 0.00 in0.0 mm 0.00 in0.0 mm 0.00 in0.0 mm
05:50 AM 70.2°F21.2°C 63.0°F17.2°C 78% 3.8 mph N6.1 kmh N 8.3 mph13.4 kmh 29.97 in1014.9 mb 0.00 in0.0 mm 0.00 in0.0 mm 0.00 in0.0 mm
06:00 AM 70.3°F21.3°C 63.2°F17.3°C 78% 3.8 mph NNE6.1 kmh NNE 8.3 mph13.4 kmh 29.97 in1014.9 mb 0.00 in0.0 mm 0.00 in0.0 mm 0.00 in0.0 mm
06:10 AM 70.7°F21.5°C 63.2°F17.3°C 77% 3.1 mph N5.0 kmh N 8.3 mph13.4 kmh 29.97 in1014.9 mb 0.00 in0.0 mm 0.00 in0.0 mm 0.00 in0.0 mm
06:20 AM 70.9°F21.6°C 63.3°F17.4°C 77% 1.6 mph N2.6 kmh N 7.6 mph12.2 kmh 29.97 in1014.9 mb 0.00 in0.0 mm 0.00 in0.0 mm 0.00 in0.0 mm
06:30 AM 70.9°F21.6°C 63.3°F17.4°C 77% 1.6 mph N2.6 kmh N 5.4 mph8.7 kmh 29.97 in1014.9 mb 0.00 in0.0 mm 0.00 in0.0 mm 0.00 in0.0 mm
06:40 AM 71.1°F21.7°C 63.5°F17.5°C 77% 1.6 mph N2.6 kmh N 6.0 mph9.7 kmh 29.97 in1014.9 mb 0.00 in0.0 mm 0.00 in0.0 mm 0.00 in0.0 mm
06:50 AM 71.2°F21.8°C 63.7°F17.6°C 77% 0.7 mph N1.1 kmh N 9.2 mph14.8 kmh 29.97 in1014.9 mb 0.00 in0.0 mm 0.00 in0.0 mm 0.00 in0.0 mm
07:00 AM 71.4°F21.9°C 63.9°F17.7°C 77% 4.5 mph N7.2 kmh N 8.3 mph13.4 kmh 29.97 in1014.9 mb 0.00 in0.0 mm 0.00 in0.0 mm 0.00 in0.0 mm
07:10 AM 71.4°F21.9°C 64.2°F17.9°C 78% 3.8 mph N6.1 kmh N 6.9 mph11.1 kmh 29.97 in1014.9 mb 0.00 in0.0 mm 0.00 in0.0 mm 0.00 in0.0 mm
07:20 AM 71.4°F21.9°C 64.2°F17.9°C 78% 3.8 mph N6.1 kmh N 8.3 mph13.4 kmh 29.97 in1014.9 mb 0.00 in0.0 mm 0.00 in0.0 mm 0.00 in0.0 mm
07:30 AM 71.4°F21.9°C 64.6°F18.1°C 79% 0.7 mph N1.1 kmh N 6.9 mph11.1 kmh 29.97 in1014.9 mb 0.00 in0.0 mm 0.00 in0.0 mm 0.00 in0.0 mm
07:40 AM 71.4°F21.9°C 64.6°F18.1°C 79% 3.1 mph N5.0 kmh N 6.0 mph9.7 kmh 29.98 in1015.2 mb 0.00 in0.0 mm 0.00 in0.0 mm 0.00 in0.0 mm
07:50 AM 71.6°F22.0°C 64.4°F18.0°C 78% 1.6 mph N2.6 kmh N 6.9 mph11.1 kmh 29.97 in1014.9 mb 0.00 in0.0 mm 0.00 in0.0 mm 0.00 in0.0 mm
08:00 AM 71.6°F22.0°C 64.4°F18.0°C 78% 0.7 mph N1.1 kmh N 6.9 mph11.1 kmh 29.97 in1014.9 mb 0.00 in0.0 mm 0.00 in0.0 mm 0.00 in0.0 mm
08:10 AM 71.8°F22.1°C 64.6°F18.1°C 78% 1.6 mph NNW2.6 kmh NNW 6.0 mph9.7 kmh 29.97 in1014.9 mb 0.00 in0.0 mm 0.00 in0.0 mm 0.00 in0.0 mm
08:20 AM 71.8°F22.1°C 64.9°F18.3°C 79% 1.6 mph N2.6 kmh N 6.0 mph9.7 kmh 29.97 in1014.9 mb 0.00 in0.0 mm 0.00 in0.0 mm 0.00 in0.0 mm
08:30 AM 72.0°F22.2°C 64.8°F18.2°C 78% 2.2 mph NNW3.5 kmh NNW 6.9 mph11.1 kmh 29.97 in1014.9 mb 0.00 in0.0 mm 0.00 in0.0 mm 0.00 in0.0 mm
08:40 AM 72.3°F22.4°C 64.7°F18.2°C 77% 2.2 mph N3.5 kmh N 9.8 mph15.8 kmh 29.96 in1014.6 mb 0.00 in0.0 mm 0.00 in0.0 mm 0.00 in0.0 mm
08:50 AM 73.0°F22.8°C 65.1°F18.4°C 76% 4.5 mph N7.2 kmh N 8.3 mph13.4 kmh 29.96 in1014.6 mb 0.00 in0.0 mm 0.00 in0.0 mm 0.00 in0.0 mm
09:00 AM 73.0°F22.8°C 64.7°F18.2°C 75% 2.2 mph N3.5 kmh N 10.7 mph17.2 kmh 29.97 in1014.9 mb 0.00 in0.0 mm 0.00 in0.0 mm 0.00 in0.0 mm
09:10 AM 73.4°F23.0°C 65.0°F18.3°C 75% 1.6 mph N2.6 kmh N 7.6 mph12.2 kmh 29.96 in1014.6 mb 0.00 in0.0 mm 0.00 in0.0 mm 0.00 in0.0 mm
09:20 AM 73.6°F23.1°C 65.2°F18.4°C 75% 0.7 mph N1.1 kmh N 9.8 mph15.8 kmh 29.96 in1014.6 mb 0.00 in0.0 mm 0.00 in0.0 mm 0.00 in0.0 mm
09:30 AM 73.6°F23.1°C 64.8°F18.2°C 74% 5.4 mph N8.7 kmh N 10.7 mph17.2 kmh 29.96 in1014.6 mb 0.00 in0.0 mm 0.00 in0.0 mm 0.00 in0.0 mm
09:40 AM 73.6°F23.1°C 65.2°F18.4°C 75% 2.2 mph N3.5 kmh N 8.3 mph13.4 kmh 29.96 in1014.6 mb 0.00 in0.0 mm 0.00 in0.0 mm 0.00 in0.0 mm
09:50 AM 74.3°F23.5°C 65.9°F18.8°C 75% 3.8 mph N6.1 kmh N 9.2 mph14.8 kmh 29.96 in1014.6 mb 0.00 in0.0 mm 0.00 in0.0 mm 0.00 in0.0 mm
10:00 AM 72.7°F22.6°C 66.5°F19.2°C 81% 4.5 mph NNW7.2 kmh NNW 9.8 mph15.8 kmh 29.96 in1014.6 mb 0.00 in0.0 mm 0.00 in0.0 mm 0.00 in0.0 mm
10:10 AM 72.3°F22.4°C 66.9°F19.4°C 83% 3.1 mph N5.0 kmh N 9.8 mph15.8 kmh 29.96 in1014.6 mb 0.00 in0.0 mm 0.00 in0.0 mm 0.00 in0.0 mm
10:20 AM 72.0°F22.2°C 66.9°F19.4°C 84% 4.5 mph N7.2 kmh N 10.7 mph17.2 kmh 29.96 in1014.6 mb 0.01 in0.3 mm 0.06 in1.5 mm 0.01 in0.3 mm
10:30 AM 71.1°F21.7°C 67.7°F19.8°C 89% 3.1 mph N5.0 kmh N 9.2 mph14.8 kmh 29.96 in1014.6 mb 0.01 in0.3 mm 0.00 in0.0 mm 0.01 in0.3 mm
10:40 AM 70.3°F21.3°C 67.3°F19.6°C 90% 2.2 mph NNE3.5 kmh NNE 9.2 mph14.8 kmh 29.96 in1014.6 mb 0.02 in0.5 mm 0.06 in1.5 mm 0.02 in0.5 mm
10:50 AM 71.2°F21.8°C 68.8°F20.4°C 92% Calm Calm 9.8 mph15.8 kmh 29.96 in1014.6 mb 0.02 in0.5 mm 0.00 in0.0 mm 0.02 in0.5 mm
11:00 AM 72.9°F22.7°C 69.1°F20.6°C 88% 0.7 mph NNE1.1 kmh NNE 2.2 mph3.5 kmh 29.96 in1014.6 mb 0.02 in0.5 mm 0.00 in0.0 mm 0.02 in0.5 mm
11:10 AM 73.2°F22.9°C 67.8°F19.9°C 83% 1.6 mph NNE2.6 kmh NNE 3.8 mph6.1 kmh 29.96 in1014.6 mb 0.02 in0.5 mm 0.00 in0.0 mm 0.02 in0.5 mm
11:20 AM 73.9°F23.3°C 68.1°F20.1°C 82% 3.1 mph NNE5.0 kmh NNE 7.6 mph12.2 kmh 29.95 in1014.2 mb 0.01 in0.3 mm 0.00 in0.0 mm 0.02 in0.5 mm
11:30 AM 75.6°F24.2°C 68.3°F20.2°C 78% 2.2 mph N3.5 kmh N 6.0 mph9.7 kmh 29.94 in1013.9 mb 0.01 in0.3 mm 0.00 in0.0 mm 0.02 in0.5 mm
11:40 AM 77.2°F25.1°C 67.9°F19.9°C 73% 2.2 mph N3.5 kmh N 9.2 mph14.8 kmh 29.94 in1013.9 mb 0.00 in0.0 mm 0.00 in0.0 mm 0.02 in0.5 mm
11:50 AM 79.0°F26.1°C 68.0°F20.0°C 69% 5.4 mph N8.7 kmh N 9.2 mph14.8 kmh 29.94 in1013.9 mb 0.00 in0.0 mm 0.00 in0.0 mm 0.02 in0.5 mm
12:00 PM 80.1°F26.7°C 68.2°F20.1°C 67% 3.8 mph NNE6.1 kmh NNE 9.8 mph15.8 kmh 29.93 in1013.5 mb 0.00 in0.0 mm 0.00 in0.0 mm 0.02 in0.5 mm
12:10 PM 81.5°F27.5°C 68.2°F20.1°C 64% 6.0 mph NE9.7 kmh NE 9.8 mph15.8 kmh 29.93 in1013.5 mb 0.00 in0.0 mm 0.00 in0.0 mm 0.02 in0.5 mm
12:20 PM 81.3°F27.4°C 68.9°F20.5°C 66% 3.1 mph N5.0 kmh N 9.8 mph15.8 kmh 29.93 in1013.5 mb 0.00 in0.0 mm 0.00 in0.0 mm 0.02 in0.5 mm
12:30 PM 81.5°F27.5°C 68.2°F20.1°C 64% 0.7 mph NNE1.1 kmh NNE 11.4 mph18.3 kmh 29.93 in1013.5 mb 0.00 in0.0 mm 0.00 in0.0 mm 0.02 in0.5 mm
12:40 PM 80.4°F26.9°C 68.1°F20.1°C 66% 3.8 mph NNE6.1 kmh NNE 9.2 mph14.8 kmh 29.93 in1013.5 mb 0.00 in0.0 mm 0.00 in0.0 mm 0.02 in0.5 mm
12:50 PM 79.7°F26.5°C 68.3°F20.2°C 68% 3.1 mph N5.0 kmh N 12.1 mph19.5 kmh 29.93 in1013.5 mb 0.00 in0.0 mm 0.00 in0.0 mm 0.02 in0.5 mm
01:00 PM 79.3°F26.3°C 67.9°F19.9°C 68% 4.5 mph N7.2 kmh N 11.4 mph18.3 kmh 29.92 in1013.2 mb 0.00 in0.0 mm 0.00 in0.0 mm 0.02 in0.5 mm
01:10 PM 79.2°F26.2°C 67.3°F19.6°C 67% 6.0 mph N9.7 kmh N 13.0 mph20.9 kmh 29.93 in1013.5 mb 0.00 in0.0 mm 0.00 in0.0 mm 0.02 in0.5 mm
01:20 PM 78.8°F26.0°C 66.5°F19.2°C 66% 6.0 mph NNW9.7 kmh NNW 13.0 mph20.9 kmh 29.92 in1013.2 mb 0.00 in0.0 mm 0.00 in0.0 mm 0.02 in0.5 mm
01:30 PM 78.4°F25.8°C 66.6°F19.2°C 67% 7.6 mph N12.2 kmh N 10.7 mph17.2 kmh 29.92 in1013.2 mb 0.00 in0.0 mm 0.00 in0.0 mm 0.02 in0.5 mm
01:40 PM 78.1°F25.6°C 66.7°F19.3°C 68% 3.8 mph N6.1 kmh N 10.7 mph17.2 kmh 29.93 in1013.5 mb 0.00 in0.0 mm 0.00 in0.0 mm 0.02 in0.5 mm
01:50 PM 78.3°F25.7°C 67.3°F19.6°C 69% 3.1 mph NW5.0 kmh NW 9.8 mph15.8 kmh 29.93 in1013.5 mb 0.00 in0.0 mm 0.00 in0.0 mm 0.02 in0.5 mm
02:00 PM 78.4°F25.8°C 67.0°F19.4°C 68% 6.0 mph NNW9.7 kmh NNW 11.4 mph18.3 kmh 29.93 in1013.5 mb 0.00 in0.0 mm 0.00 in0.0 mm 0.02 in0.5 mm
02:10 PM 79.3°F26.3°C 67.5°F19.7°C 67% 3.1 mph N5.0 kmh N 10.7 mph17.2 kmh 29.93 in1013.5 mb 0.00 in0.0 mm 0.00 in0.0 mm 0.02 in0.5 mm
02:20 PM 81.0°F27.2°C 67.2°F19.6°C 63% 7.6 mph NW12.2 kmh NW 15.9 mph25.6 kmh 29.92 in1013.2 mb 0.00 in0.0 mm 0.00 in0.0 mm 0.02 in0.5 mm
02:30 PM 82.2°F27.9°C 67.5°F19.7°C 61% 6.0 mph NNW9.7 kmh NNW 15.2 mph24.5 kmh 29.92 in1013.2 mb 0.00 in0.0 mm 0.00 in0.0 mm 0.02 in0.5 mm
02:40 PM 81.1°F27.3°C 67.4°F19.7°C 63% 5.4 mph NNW8.7 kmh NNW 10.7 mph17.2 kmh 29.91 in1012.9 mb 0.00 in0.0 mm 0.00 in0.0 mm 0.02 in0.5 mm
02:50 PM 81.0°F27.2°C 66.8°F19.3°C 62% 6.9 mph N11.1 kmh N 12.1 mph19.5 kmh 29.91 in1012.9 mb 0.00 in0.0 mm 0.00 in0.0 mm 0.02 in0.5 mm
03:00 PM 80.2°F26.8°C 67.0°F19.4°C 64% 3.1 mph N5.0 kmh N 10.7 mph17.2 kmh 29.91 in1012.9 mb 0.00 in0.0 mm 0.00 in0.0 mm 0.02 in0.5 mm
03:10 PM 79.7°F26.5°C 67.4°F19.7°C 66% 6.0 mph NNW9.7 kmh NNW 11.4 mph18.3 kmh 29.91 in1012.9 mb 0.00 in0.0 mm 0.00 in0.0 mm 0.02 in0.5 mm
03:20 PM 79.9°F26.6°C 67.6°F19.8°C 66% 6.9 mph NW11.1 kmh NW 13.0 mph20.9 kmh 29.90 in1012.5 mb 0.00 in0.0 mm 0.00 in0.0 mm 0.02 in0.5 mm
03:30 PM 80.1°F26.7°C 67.3°F19.6°C 65% 8.3 mph NW13.4 kmh NW 14.5 mph23.3 kmh 29.91 in1012.9 mb 0.00 in0.0 mm 0.00 in0.0 mm 0.02 in0.5 mm
03:40 PM 80.1°F26.7°C 67.3°F19.6°C 65% 3.8 mph NNW6.1 kmh NNW 13.0 mph20.9 kmh 29.91 in1012.9 mb 0.00 in0.0 mm 0.00 in0.0 mm 0.02 in0.5 mm
03:50 PM 79.9°F26.6°C 67.1°F19.5°C 65% 7.6 mph NW12.2 kmh NW 13.6 mph21.9 kmh 29.91 in1012.9 mb 0.00 in0.0 mm 0.00 in0.0 mm 0.02 in0.5 mm
04:00 PM 80.2°F26.8°C 67.5°F19.7°C 65% 6.0 mph NNW9.7 kmh NNW 14.5 mph23.3 kmh 29.91 in1012.9 mb 0.00 in0.0 mm 0.00 in0.0 mm 0.02 in0.5 mm
04:10 PM 80.6°F27.0°C 67.3°F19.6°C 64% 5.4 mph NW8.7 kmh NW 10.7 mph17.2 kmh 29.90 in1012.5 mb 0.00 in0.0 mm 0.00 in0.0 mm 0.02 in0.5 mm
04:20 PM 81.0°F27.2°C 67.7°F19.8°C 64% 6.0 mph NNW9.7 kmh NNW 9.8 mph15.8 kmh 29.90 in1012.5 mb 0.00 in0.0 mm 0.00 in0.0 mm 0.02 in0.5 mm
04:30 PM 81.1°F27.3°C 67.4°F19.7°C 63% 4.5 mph NW7.2 kmh NW 12.1 mph19.5 kmh 29.90 in1012.5 mb 0.00 in0.0 mm 0.00 in0.0 mm 0.02 in0.5 mm
04:40 PM 82.0°F27.8°C 67.3°F19.6°C 61% 5.4 mph NW8.7 kmh NW 12.1 mph19.5 kmh 29.89 in1012.2 mb 0.00 in0.0 mm 0.00 in0.0 mm 0.02 in0.5 mm
04:50 PM 82.4°F28.0°C 66.7°F19.3°C 59% 6.0 mph NNW9.7 kmh NNW 9.8 mph15.8 kmh 29.89 in1012.2 mb 0.00 in0.0 mm 0.00 in0.0 mm 0.02 in0.5 mm
05:00 PM 81.5°F27.5°C 67.3°F19.6°C 62% 3.1 mph NNW5.0 kmh NNW 10.7 mph17.2 kmh 29.89 in1012.2 mb 0.00 in0.0 mm 0.00 in0.0 mm 0.02 in0.5 mm
05:10 PM 80.8°F27.1°C 67.1°F19.5°C 63% 3.8 mph NW6.1 kmh NW 12.1 mph19.5 kmh 29.90 in1012.5 mb 0.00 in0.0 mm 0.00 in0.0 mm 0.02 in0.5 mm
05:20 PM 80.4°F26.9°C 67.6°F19.8°C 65% 3.1 mph NW5.0 kmh NW 8.3 mph13.4 kmh 29.90 in1012.5 mb 0.00 in0.0 mm 0.00 in0.0 mm 0.02 in0.5 mm
05:30 PM 80.1°F26.7°C 67.3°F19.6°C 65% 0.7 mph NNW1.1 kmh NNW 7.6 mph12.2 kmh 29.89 in1012.2 mb 0.00 in0.0 mm 0.00 in0.0 mm 0.02 in0.5 mm
05:40 PM 80.1°F26.7°C 67.7°F19.8°C 66% 3.8 mph NNW6.1 kmh NNW 7.6 mph12.2 kmh 29.90 in1012.5 mb 0.00 in0.0 mm 0.00 in0.0 mm 0.02 in0.5 mm
05:50 PM 79.9°F26.6°C 67.6°F19.8°C 66% 2.2 mph N3.5 kmh N 7.6 mph12.2 kmh 29.90 in1012.5 mb 0.00 in0.0 mm 0.00 in0.0 mm 0.02 in0.5 mm
06:00 PM 79.5°F26.4°C 67.6°F19.8°C 67% Calm Calm 7.6 mph12.2 kmh 29.90 in1012.5 mb 0.00 in0.0 mm 0.00 in0.0 mm 0.02 in0.5 mm
06:10 PM 79.2°F26.2°C 67.3°F19.6°C 67% 0.7 mph NNW1.1 kmh NNW 6.9 mph11.1 kmh 29.91 in1012.9 mb 0.00 in0.0 mm 0.00 in0.0 mm 0.02 in0.5 mm
06:20 PM 79.0°F26.1°C 67.6°F19.8°C 68% 3.8 mph NNW6.1 kmh NNW 6.9 mph11.1 kmh 29.90 in1012.5 mb 0.00 in0.0 mm 0.00 in0.0 mm 0.02 in0.5 mm
06:30 PM 78.4°F25.8°C 68.3°F20.2°C 71% 2.2 mph NNW3.5 kmh NNW 10.7 mph17.2 kmh 29.90 in1012.5 mb 0.00 in0.0 mm 0.00 in0.0 mm 0.02 in0.5 mm
06:40 PM 78.1°F25.6°C 68.4°F20.2°C 72% 3.8 mph N6.1 kmh N 9.2 mph14.8 kmh 29.90 in1012.5 mb 0.00 in0.0 mm 0.00 in0.0 mm 0.02 in0.5 mm
06:50 PM 77.5°F25.3°C 67.8°F19.9°C 72% 5.4 mph N8.7 kmh N 8.3 mph13.4 kmh 29.90 in1012.5 mb 0.00 in0.0 mm 0.00 in0.0 mm 0.02 in0.5 mm
07:00 PM 77.2°F25.1°C 67.9°F19.9°C 73% 4.5 mph N7.2 kmh N 9.2 mph14.8 kmh 29.90 in1012.5 mb 0.00 in0.0 mm 0.00 in0.0 mm 0.02 in0.5 mm
07:10 PM 76.6°F24.8°C 67.8°F19.9°C 74% 2.2 mph N3.5 kmh N 7.6 mph12.2 kmh 29.90 in1012.5 mb 0.00 in0.0 mm 0.00 in0.0 mm 0.02 in0.5 mm
07:20 PM 76.1°F24.5°C 67.6°F19.8°C 75% 2.2 mph N3.5 kmh N 7.6 mph12.2 kmh 29.90 in1012.5 mb 0.00 in0.0 mm 0.00 in0.0 mm 0.02 in0.5 mm
07:30 PM 76.1°F24.5°C 67.6°F19.8°C 75% 3.1 mph N5.0 kmh N 6.0 mph9.7 kmh 29.91 in1012.9 mb 0.00 in0.0 mm 0.00 in0.0 mm 0.02 in0.5 mm
07:40 PM 75.7°F24.3°C 67.7°F19.8°C 76% 2.2 mph NNW3.5 kmh NNW 4.5 mph7.2 kmh 29.91 in1012.9 mb 0.00 in0.0 mm 0.00 in0.0 mm 0.02 in0.5 mm
07:50 PM 75.6°F24.2°C 67.5°F19.7°C 76% Calm Calm 5.4 mph8.7 kmh 29.91 in1012.9 mb 0.00 in0.0 mm 0.00 in0.0 mm 0.02 in0.5 mm
08:00 PM 75.4°F24.1°C 67.3°F19.6°C 76% 2.2 mph NNW3.5 kmh NNW 8.3 mph13.4 kmh 29.91 in1012.9 mb 0.00 in0.0 mm 0.00 in0.0 mm 0.02 in0.5 mm
08:10 PM 75.4°F24.1°C 67.3°F19.6°C 76% 3.1 mph NNW5.0 kmh NNW 6.0 mph9.7 kmh 29.91 in1012.9 mb 0.00 in0.0 mm 0.00 in0.0 mm 0.02 in0.5 mm
08:20 PM 75.2°F24.0°C 67.2°F19.6°C 76% 3.1 mph NW5.0 kmh NW 6.9 mph11.1 kmh 29.91 in1012.9 mb 0.00 in0.0 mm 0.00 in0.0 mm 0.02 in0.5 mm
08:30 PM 75.0°F23.9°C 67.4°F19.7°C 77% 3.1 mph N5.0 kmh N 6.0 mph9.7 kmh 29.92 in1013.2 mb 0.00 in0.0 mm 0.00 in0.0 mm 0.02 in0.5 mm
08:40 PM 75.0°F23.9°C 67.4°F19.7°C 77% 2.2 mph N3.5 kmh N 6.0 mph9.7 kmh 29.93 in1013.5 mb 0.00 in0.0 mm 0.00 in0.0 mm 0.02 in0.5 mm
08:50 PM 74.8°F23.8°C 67.6°F19.8°C 78% Calm Calm 6.0 mph9.7 kmh 29.92 in1013.2 mb 0.00 in0.0 mm 0.00 in0.0 mm 0.02 in0.5 mm
09:00 PM 74.7°F23.7°C 67.4°F19.7°C 78% Calm Calm 4.5 mph7.2 kmh 29.93 in1013.5 mb 0.00 in0.0 mm 0.00 in0.0 mm 0.02 in0.5 mm
09:10 PM 74.7°F23.7°C 67.4°F19.7°C 78% Calm Calm 4.5 mph7.2 kmh 29.92 in1013.2 mb 0.00 in0.0 mm 0.00 in0.0 mm 0.02 in0.5 mm
09:20 PM 74.7°F23.7°C 67.4°F19.7°C 78% Calm Calm 3.8 mph6.1 kmh 29.93 in1013.5 mb 0.00 in0.0 mm 0.00 in0.0 mm 0.02 in0.5 mm
09:30 PM 74.5°F23.6°C 67.2°F19.6°C 78% Calm Calm 3.8 mph6.1 kmh 29.93 in1013.5 mb 0.00 in0.0 mm 0.00 in0.0 mm 0.02 in0.5 mm
09:40 PM 74.5°F23.6°C 67.2°F19.6°C 78% Calm Calm 4.5 mph7.2 kmh 29.92 in1013.2 mb 0.00 in0.0 mm 0.00 in0.0 mm 0.02 in0.5 mm
09:50 PM 74.5°F23.6°C 67.6°F19.8°C 79% 1.6 mph N2.6 kmh N 6.0 mph9.7 kmh 29.92 in1013.2 mb 0.00 in0.0 mm 0.00 in0.0 mm 0.02 in0.5 mm
10:00 PM 74.3°F23.5°C 67.4°F19.7°C 79% Calm Calm 6.0 mph9.7 kmh 29.92 in1013.2 mb 0.00 in0.0 mm 0.00 in0.0 mm 0.02 in0.5 mm
10:10 PM 74.3°F23.5°C 67.4°F19.7°C 79% 1.6 mph N2.6 kmh N 4.5 mph7.2 kmh 29.93 in1013.5 mb 0.00 in0.0 mm 0.00 in0.0 mm 0.02 in0.5 mm
10:20 PM 74.1°F23.4°C 67.6°F19.8°C 80% Calm Calm 6.0 mph9.7 kmh 29.93 in1013.5 mb 0.00 in0.0 mm 0.00 in0.0 mm 0.02 in0.5 mm
10:30 PM 73.8°F23.2°C 67.2°F19.6°C 80% Calm Calm 4.5 mph7.2 kmh 29.93 in1013.5 mb 0.00 in0.0 mm 0.00 in0.0 mm 0.02 in0.5 mm
10:40 PM 73.6°F23.1°C 67.4°F19.7°C 81% 1.6 mph N2.6 kmh N 6.0 mph9.7 kmh 29.93 in1013.5 mb 0.00 in0.0 mm 0.00 in0.0 mm 0.02 in0.5 mm
10:50 PM 73.2°F22.9°C 67.1°F19.5°C 81% Calm Calm 5.4 mph8.7 kmh 29.92 in1013.2 mb 0.00 in0.0 mm 0.00 in0.0 mm 0.02 in0.5 mm
11:00 PM 73.0°F22.8°C 66.9°F19.4°C 81% Calm Calm 4.5 mph7.2 kmh 29.93 in1013.5 mb 0.00 in0.0 mm 0.00 in0.0 mm 0.02 in0.5 mm
11:10 PM 72.7°F22.6°C 66.9°F19.4°C 82% 1.6 mph N2.6 kmh N 5.4 mph8.7 kmh 29.93 in1013.5 mb 0.00 in0.0 mm 0.00 in0.0 mm 0.02 in0.5 mm
11:20 PM 72.7°F22.6°C 66.9°F19.4°C 82% 1.6 mph N2.6 kmh N 6.0 mph9.7 kmh 29.92 in1013.2 mb 0.00 in0.0 mm 0.00 in0.0 mm 0.02 in0.5 mm
11:30 PM 72.9°F22.7°C 67.1°F19.5°C 82% 1.6 mph N2.6 kmh N 7.6 mph12.2 kmh 29.93 in1013.5 mb 0.00 in0.0 mm 0.00 in0.0 mm 0.02 in0.5 mm
11:40 PM 73.2°F22.9°C 67.4°F19.7°C 82% 1.6 mph N2.6 kmh N 6.0 mph9.7 kmh 29.93 in1013.5 mb 0.00 in0.0 mm 0.00 in0.0 mm 0.02 in0.5 mm
11:50 PM 73.2°F22.9°C 67.1°F19.5°C 81% 1.6 mph N2.6 kmh N 6.0 mph9.7 kmh 29.92 in1013.2 mb 0.00 in0.0 mm 0.00 in0.0 mm 0.02 in0.5 mm